sensor_id;sensor_type;location;lat;lon;timestamp;P1;durP1;ratioP1;P2;durP2;ratioP2
32812;SDS011;19162;48.254;11.454;2023-04-25T00:02:30;2.90;;;2.63;;
32812;SDS011;19162;48.254;11.454;2023-04-25T00:05:32;1.90;;;1.80;;
32812;SDS011;19162;48.254;11.454;2023-04-25T00:08:32;5.30;;;2.40;;
32812;SDS011;19162;48.254;11.454;2023-04-25T00:11:33;3.07;;;2.33;;
32812;SDS011;19162;48.254;11.454;2023-04-25T00:14:34;2.40;;;2.20;;
32812;SDS011;19162;48.254;11.454;2023-04-25T00:17:35;2.08;;;1.92;;
32812;SDS011;19162;48.254;11.454;2023-04-25T00:20:35;2.27;;;2.07;;
32812;SDS011;19162;48.254;11.454;2023-04-25T00:23:36;3.25;;;2.60;;
32812;SDS011;19162;48.254;11.454;2023-04-25T00:26:36;3.25;;;2.30;;
32812;SDS011;19162;48.254;11.454;2023-04-25T00:29:36;1.92;;;1.75;;
32812;SDS011;19162;48.254;11.454;2023-04-25T00:32:37;2.33;;;2.13;;
32812;SDS011;19162;48.254;11.454;2023-04-25T00:35:37;2.23;;;2.03;;
32812;SDS011;19162;48.254;11.454;2023-04-25T00:38:37;3.33;;;2.40;;
32812;SDS011;19162;48.254;11.454;2023-04-25T00:41:38;3.50;;;2.35;;
32812;SDS011;19162;48.254;11.454;2023-04-25T00:44:38;2.42;;;1.80;;
32812;SDS011;19162;48.254;11.454;2023-04-25T00:47:39;2.70;;;2.35;;
32812;SDS011;19162;48.254;11.454;2023-04-25T00:50:40;2.55;;;2.13;;
32812;SDS011;19162;48.254;11.454;2023-04-25T00:53:41;2.95;;;2.40;;
32812;SDS011;19162;48.254;11.454;2023-04-25T00:56:41;2.60;;;2.40;;
32812;SDS011;19162;48.254;11.454;2023-04-25T00:59:42;2.07;;;1.90;;
32812;SDS011;19162;48.254;11.454;2023-04-25T01:02:44;2.42;;;1.98;;
32812;SDS011;19162;48.254;11.454;2023-04-25T01:05:44;3.05;;;2.00;;
32812;SDS011;19162;48.254;11.454;2023-04-25T01:08:45;2.33;;;2.08;;
32812;SDS011;19162;48.254;11.454;2023-04-25T01:11:45;2.83;;;2.23;;
32812;SDS011;19162;48.254;11.454;2023-04-25T01:14:45;3.72;;;2.30;;
32812;SDS011;19162;48.254;11.454;2023-04-25T01:17:45;2.30;;;2.10;;
32812;SDS011;19162;48.254;11.454;2023-04-25T01:20:46;2.08;;;1.98;;
32812;SDS011;19162;48.254;11.454;2023-04-25T01:23:49;2.42;;;2.22;;
32812;SDS011;19162;48.254;11.454;2023-04-25T01:26:49;3.15;;;2.05;;
32812;SDS011;19162;48.254;11.454;2023-04-25T01:29:50;1.92;;;1.83;;
32812;SDS011;19162;48.254;11.454;2023-04-25T01:32:51;2.42;;;2.00;;
32812;SDS011;19162;48.254;11.454;2023-04-25T01:35:52;5.80;;;2.20;;
32812;SDS011;19162;48.254;11.454;2023-04-25T01:38:52;4.47;;;2.37;;
32812;SDS011;19162;48.254;11.454;2023-04-25T01:41:52;2.20;;;2.10;;
32812;SDS011;19162;48.254;11.454;2023-04-25T01:44:52;3.30;;;2.42;;
32812;SDS011;19162;48.254;11.454;2023-04-25T01:47:53;4.03;;;2.53;;
32812;SDS011;19162;48.254;11.454;2023-04-25T01:50:53;2.47;;;2.28;;
32812;SDS011;19162;48.254;11.454;2023-04-25T01:53:53;2.00;;;1.80;;
32812;SDS011;19162;48.254;11.454;2023-04-25T01:56:56;2.45;;;2.25;;
32812;SDS011;19162;48.254;11.454;2023-04-25T01:59:58;4.40;;;2.20;;
32812;SDS011;19162;48.254;11.454;2023-04-25T02:02:58;2.33;;;2.08;;
32812;SDS011;19162;48.254;11.454;2023-04-25T02:05:59;4.18;;;2.15;;
32812;SDS011;19162;48.254;11.454;2023-04-25T02:08:59;2.27;;;2.07;;
32812;SDS011;19162;48.254;11.454;2023-04-25T02:11:59;3.50;;;2.43;;
32812;SDS011;19162;48.254;11.454;2023-04-25T02:15:00;2.75;;;2.47;;
32812;SDS011;19162;48.254;11.454;2023-04-25T02:18:00;5.07;;;2.10;;
32812;SDS011;19162;48.254;11.454;2023-04-25T02:21:00;2.87;;;2.57;;
32812;SDS011;19162;48.254;11.454;2023-04-25T02:24:01;3.22;;;2.40;;
32812;SDS011;19162;48.254;11.454;2023-04-25T02:27:01;2.55;;;2.35;;
32812;SDS011;19162;48.254;11.454;2023-04-25T02:30:01;2.83;;;2.33;;
32812;SDS011;19162;48.254;11.454;2023-04-25T02:33:02;2.53;;;2.20;;
32812;SDS011;19162;48.254;11.454;2023-04-25T02:36:03;3.87;;;2.50;;
32812;SDS011;19162;48.254;11.454;2023-04-25T02:39:03;2.97;;;2.58;;
32812;SDS011;19162;48.254;11.454;2023-04-25T02:42:03;3.47;;;2.30;;
32812;SDS011;19162;48.254;11.454;2023-04-25T02:45:03;2.63;;;2.43;;
32812;SDS011;19162;48.254;11.454;2023-04-25T02:48:04;3.60;;;1.85;;
32812;SDS011;19162;48.254;11.454;2023-04-25T02:51:04;3.38;;;2.72;;
32812;SDS011;19162;48.254;11.454;2023-04-25T02:54:04;4.20;;;2.50;;
32812;SDS011;19162;48.254;11.454;2023-04-25T02:57:06;2.50;;;2.30;;
32812;SDS011;19162;48.254;11.454;2023-04-25T03:00:07;2.17;;;2.08;;
32812;SDS011;19162;48.254;11.454;2023-04-25T03:03:07;2.67;;;2.42;;
32812;SDS011;19162;48.254;11.454;2023-04-25T03:06:07;3.33;;;2.30;;
32812;SDS011;19162;48.254;11.454;2023-04-25T03:09:07;2.50;;;2.30;;
32812;SDS011;19162;48.254;11.454;2023-04-25T03:12:08;2.80;;;2.40;;
32812;SDS011;19162;48.254;11.454;2023-04-25T03:15:08;2.70;;;2.50;;
32812;SDS011;19162;48.254;11.454;2023-04-25T03:18:08;2.45;;;2.25;;
32812;SDS011;19162;48.254;11.454;2023-04-25T03:21:08;3.72;;;2.53;;
32812;SDS011;19162;48.254;11.454;2023-04-25T03:24:09;3.10;;;2.80;;
32812;SDS011;19162;48.254;11.454;2023-04-25T03:27:10;3.92;;;2.35;;
32812;SDS011;19162;48.254;11.454;2023-04-25T03:30:11;2.22;;;2.13;;
32812;SDS011;19162;48.254;11.454;2023-04-25T03:33:11;2.55;;;2.33;;
32812;SDS011;19162;48.254;11.454;2023-04-25T03:36:11;2.72;;;2.35;;
32812;SDS011;19162;48.254;11.454;2023-04-25T03:39:11;2.70;;;2.50;;
32812;SDS011;19162;48.254;11.454;2023-04-25T03:42:12;4.80;;;3.20;;
32812;SDS011;19162;48.254;11.454;2023-04-25T03:45:12;3.15;;;2.70;;
32812;SDS011;19162;48.254;11.454;2023-04-25T03:48:12;2.65;;;2.42;;
32812;SDS011;19162;48.254;11.454;2023-04-25T03:51:12;2.87;;;2.00;;
32812;SDS011;19162;48.254;11.454;2023-04-25T03:54:12;3.30;;;2.60;;
32812;SDS011;19162;48.254;11.454;2023-04-25T03:57:13;3.80;;;2.08;;
32812;SDS011;19162;48.254;11.454;2023-04-25T04:00:13;2.50;;;2.30;;
32812;SDS011;19162;48.254;11.454;2023-04-25T04:03:14;3.28;;;2.13;;
32812;SDS011;19162;48.254;11.454;2023-04-25T04:06:14;4.00;;;2.90;;
32812;SDS011;19162;48.254;11.454;2023-04-25T04:09:14;2.33;;;2.00;;
32812;SDS011;19162;48.254;11.454;2023-04-25T04:12:15;5.55;;;2.22;;
32812;SDS011;19162;48.254;11.454;2023-04-25T04:15:15;3.33;;;2.10;;
32812;SDS011;19162;48.254;11.454;2023-04-25T04:18:15;1.70;;;1.47;;
32812;SDS011;19162;48.254;11.454;2023-04-25T04:21:16;2.83;;;1.58;;
32812;SDS011;19162;48.254;11.454;2023-04-25T04:24:16;3.42;;;1.90;;
32812;SDS011;19162;48.254;11.454;2023-04-25T04:27:19;3.10;;;1.70;;
32812;SDS011;19162;48.254;11.454;2023-04-25T04:30:21;3.05;;;1.42;;
32812;SDS011;19162;48.254;11.454;2023-04-25T04:33:23;2.42;;;1.63;;
32812;SDS011;19162;48.254;11.454;2023-04-25T04:36:24;2.67;;;1.60;;
32812;SDS011;19162;48.254;11.454;2023-04-25T04:39:26;3.47;;;1.33;;
32812;SDS011;19162;48.254;11.454;2023-04-25T04:42:26;1.90;;;1.37;;
32812;SDS011;19162;48.254;11.454;2023-04-25T04:45:28;2.08;;;1.55;;
32812;SDS011;19162;48.254;11.454;2023-04-25T04:48:28;1.95;;;1.70;;
32812;SDS011;19162;48.254;11.454;2023-04-25T04:51:28;1.77;;;1.60;;
32812;SDS011;19162;48.254;11.454;2023-04-25T04:54:30;2.05;;;1.50;;
32812;SDS011;19162;48.254;11.454;2023-04-25T04:57:30;1.70;;;1.53;;
32812;SDS011;19162;48.254;11.454;2023-04-25T05:00:31;3.92;;;1.75;;
32812;SDS011;19162;48.254;11.454;2023-04-25T05:03:31;2.10;;;1.90;;
32812;SDS011;19162;48.254;11.454;2023-04-25T05:06:32;3.47;;;1.80;;
32812;SDS011;19162;48.254;11.454;2023-04-25T05:09:32;2.80;;;1.80;;
32812;SDS011;19162;48.254;11.454;2023-04-25T05:12:32;2.83;;;1.70;;
32812;SDS011;19162;48.254;11.454;2023-04-25T05:15:32;3.10;;;1.90;;
32812;SDS011;19162;48.254;11.454;2023-04-25T05:18:32;2.30;;;1.73;;
32812;SDS011;19162;48.254;11.454;2023-04-25T05:21:33;3.17;;;1.58;;
32812;SDS011;19162;48.254;11.454;2023-04-25T05:24:33;2.50;;;2.00;;
32812;SDS011;19162;48.254;11.454;2023-04-25T05:27:33;1.88;;;1.70;;
32812;SDS011;19162;48.254;11.454;2023-04-25T05:30:34;2.23;;;2.03;;
32812;SDS011;19162;48.254;11.454;2023-04-25T05:33:34;1.90;;;1.80;;
32812;SDS011;19162;48.254;11.454;2023-04-25T05:36:34;2.07;;;1.87;;
32812;SDS011;19162;48.254;11.454;2023-04-25T05:39:34;2.55;;;2.10;;
32812;SDS011;19162;48.254;11.454;2023-04-25T05:42:35;1.98;;;1.75;;
32812;SDS011;19162;48.254;11.454;2023-04-25T05:45:35;3.72;;;1.98;;
32812;SDS011;19162;48.254;11.454;2023-04-25T05:48:35;2.57;;;2.37;;
32812;SDS011;19162;48.254;11.454;2023-04-25T05:51:35;4.43;;;2.17;;
32812;SDS011;19162;48.254;11.454;2023-04-25T05:54:35;2.33;;;2.13;;
32812;SDS011;19162;48.254;11.454;2023-04-25T05:57:36;4.10;;;3.03;;
32812;SDS011;19162;48.254;11.454;2023-04-25T06:00:36;4.60;;;2.57;;
32812;SDS011;19162;48.254;11.454;2023-04-25T06:03:36;3.83;;;2.43;;
32812;SDS011;19162;48.254;11.454;2023-04-25T06:06:37;3.13;;;2.47;;
32812;SDS011;19162;48.254;11.454;2023-04-25T06:09:38;4.07;;;2.60;;
32812;SDS011;19162;48.254;11.454;2023-04-25T06:12:39;2.63;;;2.42;;
32812;SDS011;19162;48.254;11.454;2023-04-25T06:15:39;7.15;;;2.78;;
32812;SDS011;19162;48.254;11.454;2023-04-25T06:18:40;4.60;;;2.83;;
32812;SDS011;19162;48.254;11.454;2023-04-25T06:21:41;3.40;;;3.00;;
32812;SDS011;19162;48.254;11.454;2023-04-25T06:24:41;4.93;;;3.22;;
32812;SDS011;19162;48.254;11.454;2023-04-25T06:27:41;5.25;;;2.78;;
32812;SDS011;19162;48.254;11.454;2023-04-25T06:30:41;3.30;;;2.88;;
32812;SDS011;19162;48.254;11.454;2023-04-25T06:33:42;3.27;;;2.80;;
32812;SDS011;19162;48.254;11.454;2023-04-25T06:36:42;5.22;;;3.38;;
32812;SDS011;19162;48.254;11.454;2023-04-25T06:39:44;3.88;;;2.63;;
32812;SDS011;19162;48.254;11.454;2023-04-25T06:42:44;3.87;;;2.43;;
32812;SDS011;19162;48.254;11.454;2023-04-25T06:45:44;3.08;;;2.60;;
32812;SDS011;19162;48.254;11.454;2023-04-25T06:48:44;5.15;;;2.88;;
32812;SDS011;19162;48.254;11.454;2023-04-25T06:51:44;3.17;;;2.80;;
32812;SDS011;19162;48.254;11.454;2023-04-25T06:54:44;3.60;;;2.50;;
32812;SDS011;19162;48.254;11.454;2023-04-25T06:57:45;4.82;;;2.70;;
32812;SDS011;19162;48.254;11.454;2023-04-25T07:00:45;3.85;;;2.95;;
32812;SDS011;19162;48.254;11.454;2023-04-25T07:03:46;2.87;;;2.67;;
32812;SDS011;19162;48.254;11.454;2023-04-25T07:06:46;5.03;;;2.63;;
32812;SDS011;19162;48.254;11.454;2023-04-25T07:09:48;3.08;;;2.67;;
32812;SDS011;19162;48.254;11.454;2023-04-25T07:12:48;5.73;;;2.77;;
32812;SDS011;19162;48.254;11.454;2023-04-25T07:15:48;3.28;;;2.60;;
32812;SDS011;19162;48.254;11.454;2023-04-25T07:18:48;3.37;;;2.63;;
32812;SDS011;19162;48.254;11.454;2023-04-25T07:21:49;3.13;;;2.77;;
32812;SDS011;19162;48.254;11.454;2023-04-25T07:24:49;3.67;;;2.58;;
32812;SDS011;19162;48.254;11.454;2023-04-25T07:27:49;4.97;;;2.87;;
32812;SDS011;19162;48.254;11.454;2023-04-25T07:30:49;5.70;;;3.10;;
32812;SDS011;19162;48.254;11.454;2023-04-25T07:33:50;3.33;;;2.28;;
32812;SDS011;19162;48.254;11.454;2023-04-25T07:36:50;2.40;;;2.20;;
32812;SDS011;19162;48.254;11.454;2023-04-25T07:39:51;3.13;;;2.30;;
32812;SDS011;19162;48.254;11.454;2023-04-25T07:42:51;2.80;;;2.13;;
32812;SDS011;19162;48.254;11.454;2023-04-25T07:45:51;2.73;;;2.17;;
32812;SDS011;19162;48.254;11.454;2023-04-25T07:48:52;2.83;;;2.37;;
32812;SDS011;19162;48.254;11.454;2023-04-25T07:51:52;2.35;;;2.10;;
32812;SDS011;19162;48.254;11.454;2023-04-25T07:54:52;2.30;;;2.00;;
32812;SDS011;19162;48.254;11.454;2023-04-25T07:57:53;2.72;;;2.10;;
32812;SDS011;19162;48.254;11.454;2023-04-25T08:00:54;4.10;;;2.42;;
32812;SDS011;19162;48.254;11.454;2023-04-25T08:03:54;2.70;;;1.95;;
32812;SDS011;19162;48.254;11.454;2023-04-25T08:06:55;2.65;;;1.75;;
32812;SDS011;19162;48.254;11.454;2023-04-25T08:09:55;2.08;;;1.90;;
32812;SDS011;19162;48.254;11.454;2023-04-25T08:12:56;2.78;;;2.30;;
32812;SDS011;19162;48.254;11.454;2023-04-25T08:15:56;2.10;;;1.85;;
32812;SDS011;19162;48.254;11.454;2023-04-25T08:18:57;2.00;;;1.58;;
32812;SDS011;19162;48.254;11.454;2023-04-25T08:21:57;1.70;;;1.58;;
32812;SDS011;19162;48.254;11.454;2023-04-25T09:18:30;1.75;;;1.65;;
32812;SDS011;19162;48.254;11.454;2023-04-25T09:21:36;2.67;;;2.08;;
32812;SDS011;19162;48.254;11.454;2023-04-25T09:35:51;2.58;;;1.58;;
32812;SDS011;19162;48.254;11.454;2023-04-25T09:38:59;3.22;;;1.83;;
32812;SDS011;19162;48.254;11.454;2023-04-25T09:42:00;1.75;;;1.50;;
32812;SDS011;19162;48.254;11.454;2023-04-25T09:48:52;2.38;;;1.60;;
32812;SDS011;19162;48.254;11.454;2023-04-25T09:52:05;1.40;;;1.05;;
32812;SDS011;19162;48.254;11.454;2023-04-25T09:55:06;1.58;;;1.45;;
32812;SDS011;19162;48.254;11.454;2023-04-25T09:58:16;2.38;;;1.63;;
32812;SDS011;19162;48.254;11.454;2023-04-25T10:01:22;2.30;;;1.80;;
32812;SDS011;19162;48.254;11.454;2023-04-25T10:08:11;1.90;;;1.55;;
32812;SDS011;19162;48.254;11.454;2023-04-25T10:12:16;1.58;;;1.35;;
32812;SDS011;19162;48.254;11.454;2023-04-25T10:15:00;2.28;;;1.42;;
32812;SDS011;19162;48.254;11.454;2023-04-25T10:18:09;3.77;;;1.63;;
32812;SDS011;19162;48.254;11.454;2023-04-25T10:21:25;1.80;;;1.67;;
32812;SDS011;19162;48.254;11.454;2023-04-25T10:24:33;2.15;;;1.27;;
32812;SDS011;19162;48.254;11.454;2023-04-25T10:27:46;2.90;;;1.40;;
32812;SDS011;19162;48.254;11.454;2023-04-25T10:31:07;2.83;;;1.42;;
32812;SDS011;19162;48.254;11.454;2023-04-25T10:34:07;1.67;;;1.30;;
32812;SDS011;19162;48.254;11.454;2023-04-25T10:37:10;2.63;;;1.20;;
32812;SDS011;19162;48.254;11.454;2023-04-25T10:40:12;2.20;;;1.58;;
32812;SDS011;19162;48.254;11.454;2023-04-25T10:46:32;2.95;;;1.80;;
32812;SDS011;19162;48.254;11.454;2023-04-25T10:49:37;2.45;;;1.88;;
32812;SDS011;19162;48.254;11.454;2023-04-25T10:52:41;2.15;;;1.95;;
32812;SDS011;19162;48.254;11.454;2023-04-25T10:55:50;2.08;;;1.90;;
32812;SDS011;19162;48.254;11.454;2023-04-25T10:58:51;1.90;;;1.80;;
32812;SDS011;19162;48.254;11.454;2023-04-25T11:01:52;1.95;;;1.80;;
32812;SDS011;19162;48.254;11.454;2023-04-25T11:04:54;1.58;;;1.45;;
32812;SDS011;19162;48.254;11.454;2023-04-25T11:07:55;2.63;;;1.70;;
32812;SDS011;19162;48.254;11.454;2023-04-25T11:10:59;2.15;;;1.58;;
32812;SDS011;19162;48.254;11.454;2023-04-25T11:13:59;2.20;;;2.00;;
32812;SDS011;19162;48.254;11.454;2023-04-25T11:17:00;2.08;;;1.85;;
32812;SDS011;19162;48.254;11.454;2023-04-25T11:20:01;2.13;;;1.95;;
32812;SDS011;19162;48.254;11.454;2023-04-25T11:23:01;3.33;;;1.70;;
32812;SDS011;19162;48.254;11.454;2023-04-25T11:26:01;1.67;;;1.50;;
32812;SDS011;19162;48.254;11.454;2023-04-25T11:29:02;1.70;;;1.60;;
32812;SDS011;19162;48.254;11.454;2023-04-25T11:32:02;2.25;;;1.80;;
32812;SDS011;19162;48.254;11.454;2023-04-25T11:35:03;2.22;;;1.70;;
32812;SDS011;19162;48.254;11.454;2023-04-25T11:38:04;2.47;;;1.40;;
32812;SDS011;19162;48.254;11.454;2023-04-25T11:41:04;2.35;;;1.10;;
32812;SDS011;19162;48.254;11.454;2023-04-25T11:44:04;1.70;;;1.60;;
32812;SDS011;19162;48.254;11.454;2023-04-25T11:47:05;3.38;;;1.67;;
32812;SDS011;19162;48.254;11.454;2023-04-25T11:50:06;1.25;;;1.15;;
32812;SDS011;19162;48.254;11.454;2023-04-25T11:53:07;1.40;;;1.10;;
32812;SDS011;19162;48.254;11.454;2023-04-25T11:56:11;1.10;;;1.00;;
32812;SDS011;19162;48.254;11.454;2023-04-25T11:59:12;1.50;;;1.40;;
32812;SDS011;19162;48.254;11.454;2023-04-25T12:02:23;2.53;;;1.63;;
32812;SDS011;19162;48.254;11.454;2023-04-25T12:05:25;1.50;;;1.40;;
32812;SDS011;19162;48.254;11.454;2023-04-25T12:08:25;1.58;;;1.48;;
32812;SDS011;19162;48.254;11.454;2023-04-25T12:11:26;1.35;;;1.25;;
32812;SDS011;19162;48.254;11.454;2023-04-25T12:14:27;2.50;;;1.70;;
32812;SDS011;19162;48.254;11.454;2023-04-25T12:17:28;1.63;;;1.52;;
32812;SDS011;19162;48.254;11.454;2023-04-25T12:20:28;1.67;;;1.57;;
32812;SDS011;19162;48.254;11.454;2023-04-25T12:23:31;2.00;;;1.42;;
32812;SDS011;19162;48.254;11.454;2023-04-25T12:26:45;1.57;;;1.47;;
32812;SDS011;19162;48.254;11.454;2023-04-25T12:29:52;1.13;;;1.08;;
32812;SDS011;19162;48.254;11.454;2023-04-25T12:32:53;1.08;;;1.00;;
32812;SDS011;19162;48.254;11.454;2023-04-25T12:35:53;1.65;;;1.15;;
32812;SDS011;19162;48.254;11.454;2023-04-25T12:38:53;1.45;;;1.20;;
32812;SDS011;19162;48.254;11.454;2023-04-25T12:41:53;1.40;;;1.30;;
32812;SDS011;19162;48.254;11.454;2023-04-25T12:44:54;2.13;;;1.57;;
32812;SDS011;19162;48.254;11.454;2023-04-25T12:47:54;1.33;;;1.23;;
32812;SDS011;19162;48.254;11.454;2023-04-25T12:50:54;1.92;;;1.55;;
32812;SDS011;19162;48.254;11.454;2023-04-25T12:53:55;1.90;;;1.40;;
32812;SDS011;19162;48.254;11.454;2023-04-25T12:56:55;1.80;;;1.33;;
32812;SDS011;19162;48.254;11.454;2023-04-25T12:59:56;2.50;;;1.60;;
32812;SDS011;19162;48.254;11.454;2023-04-25T13:02:56;2.42;;;1.95;;
32812;SDS011;19162;48.254;11.454;2023-04-25T13:05:57;2.17;;;1.30;;
32812;SDS011;19162;48.254;11.454;2023-04-25T13:08:57;1.13;;;1.03;;
32812;SDS011;19162;48.254;11.454;2023-04-25T13:11:57;1.03;;;0.93;;
32812;SDS011;19162;48.254;11.454;2023-04-25T13:14:57;1.43;;;1.00;;
32812;SDS011;19162;48.254;11.454;2023-04-25T13:17:58;1.60;;;0.80;;
32812;SDS011;19162;48.254;11.454;2023-04-25T13:20:58;1.20;;;1.10;;
32812;SDS011;19162;48.254;11.454;2023-04-25T13:23:59;1.55;;;1.10;;
32812;SDS011;19162;48.254;11.454;2023-04-25T13:26:59;1.45;;;0.88;;
32812;SDS011;19162;48.254;11.454;2023-04-25T13:30:01;1.13;;;0.90;;
32812;SDS011;19162;48.254;11.454;2023-04-25T13:33:07;2.33;;;0.98;;
32812;SDS011;19162;48.254;11.454;2023-04-25T13:36:07;1.33;;;0.90;;
32812;SDS011;19162;48.254;11.454;2023-04-25T13:39:07;1.10;;;0.90;;
32812;SDS011;19162;48.254;11.454;2023-04-25T13:42:08;2.53;;;1.20;;
32812;SDS011;19162;48.254;11.454;2023-04-25T13:45:08;0.93;;;0.93;;
32812;SDS011;19162;48.254;11.454;2023-04-25T13:48:08;1.10;;;1.00;;
32812;SDS011;19162;48.254;11.454;2023-04-25T13:51:09;1.10;;;1.00;;
32812;SDS011;19162;48.254;11.454;2023-04-25T13:54:09;1.73;;;1.08;;
32812;SDS011;19162;48.254;11.454;2023-04-25T13:57:10;1.20;;;1.20;;
32812;SDS011;19162;48.254;11.454;2023-04-25T14:00:11;0.90;;;0.90;;
32812;SDS011;19162;48.254;11.454;2023-04-25T14:03:11;0.85;;;0.85;;
32812;SDS011;19162;48.254;11.454;2023-04-25T14:06:11;0.90;;;0.90;;
32812;SDS011;19162;48.254;11.454;2023-04-25T14:09:12;1.30;;;1.20;;
32812;SDS011;19162;48.254;11.454;2023-04-25T14:12:13;1.10;;;1.00;;
32812;SDS011;19162;48.254;11.454;2023-04-25T14:15:13;1.45;;;1.13;;
32812;SDS011;19162;48.254;11.454;2023-04-25T14:18:14;1.30;;;1.20;;
32812;SDS011;19162;48.254;11.454;2023-04-25T14:21:14;1.38;;;1.35;;
32812;SDS011;19162;48.254;11.454;2023-04-25T14:24:14;1.40;;;1.30;;
32812;SDS011;19162;48.254;11.454;2023-04-25T14:27:15;1.40;;;1.30;;
32812;SDS011;19162;48.254;11.454;2023-04-25T14:30:18;1.42;;;1.20;;
32812;SDS011;19162;48.254;11.454;2023-04-25T14:33:19;1.92;;;1.20;;
32812;SDS011;19162;48.254;11.454;2023-04-25T14:36:23;0.95;;;0.60;;
32812;SDS011;19162;48.254;11.454;2023-04-25T14:39:24;0.60;;;0.60;;
32812;SDS011;19162;48.254;11.454;2023-04-25T14:42:24;0.70;;;0.70;;
32812;SDS011;19162;48.254;11.454;2023-04-25T14:45:27;2.53;;;2.33;;
32812;SDS011;19162;48.254;11.454;2023-04-25T14:48:28;4.72;;;3.90;;
32812;SDS011;19162;48.254;11.454;2023-04-25T14:51:29;1.10;;;1.00;;
32812;SDS011;19162;48.254;11.454;2023-04-25T14:54:29;0.90;;;0.90;;
32812;SDS011;19162;48.254;11.454;2023-04-25T14:57:29;1.08;;;1.05;;
32812;SDS011;19162;48.254;11.454;2023-04-25T15:00:30;1.45;;;1.35;;
32812;SDS011;19162;48.254;11.454;2023-04-25T15:03:31;1.50;;;1.33;;
32812;SDS011;19162;48.254;11.454;2023-04-25T15:06:32;1.75;;;1.65;;
32812;SDS011;19162;48.254;11.454;2023-04-25T15:09:33;1.95;;;1.80;;
32812;SDS011;19162;48.254;11.454;2023-04-25T15:12:33;1.83;;;1.73;;
32812;SDS011;19162;48.254;11.454;2023-04-25T15:15:33;1.90;;;1.80;;
32812;SDS011;19162;48.254;11.454;2023-04-25T15:18:33;1.90;;;1.70;;
32812;SDS011;19162;48.254;11.454;2023-04-25T15:21:34;2.28;;;1.80;;
32812;SDS011;19162;48.254;11.454;2023-04-25T15:24:34;1.88;;;1.77;;
32812;SDS011;19162;48.254;11.454;2023-04-25T15:27:35;2.00;;;1.90;;
32812;SDS011;19162;48.254;11.454;2023-04-25T15:30:43;2.00;;;1.90;;
32812;SDS011;19162;48.254;11.454;2023-04-25T15:33:43;1.90;;;1.80;;
32812;SDS011;19162;48.254;11.454;2023-04-25T15:36:44;1.80;;;1.70;;
32812;SDS011;19162;48.254;11.454;2023-04-25T15:39:44;1.92;;;1.83;;
32812;SDS011;19162;48.254;11.454;2023-04-25T15:42:45;1.70;;;1.60;;
32812;SDS011;19162;48.254;11.454;2023-04-25T15:45:52;1.70;;;1.60;;
32812;SDS011;19162;48.254;11.454;2023-04-25T15:48:52;1.90;;;1.80;;
32812;SDS011;19162;48.254;11.454;2023-04-25T15:51:52;2.30;;;2.10;;
32812;SDS011;19162;48.254;11.454;2023-04-25T15:54:53;1.98;;;1.88;;
32812;SDS011;19162;48.254;11.454;2023-04-25T15:57:53;2.65;;;2.45;;
32812;SDS011;19162;48.254;11.454;2023-04-25T16:00:53;2.70;;;2.28;;
32812;SDS011;19162;48.254;11.454;2023-04-25T16:03:55;3.08;;;2.80;;
32812;SDS011;19162;48.254;11.454;2023-04-25T16:06:58;2.65;;;2.45;;
32812;SDS011;19162;48.254;11.454;2023-04-25T16:09:59;3.13;;;2.90;;
32812;SDS011;19162;48.254;11.454;2023-04-25T16:12:59;2.90;;;2.70;;
32812;SDS011;19162;48.254;11.454;2023-04-25T16:16:00;2.50;;;2.37;;
32812;SDS011;19162;48.254;11.454;2023-04-25T16:19:00;3.20;;;2.90;;
32812;SDS011;19162;48.254;11.454;2023-04-25T16:22:00;2.90;;;2.70;;
32812;SDS011;19162;48.254;11.454;2023-04-25T16:25:02;2.80;;;2.60;;
32812;SDS011;19162;48.254;11.454;2023-04-25T16:28:02;2.97;;;2.78;;
32812;SDS011;19162;48.254;11.454;2023-04-25T16:31:02;3.87;;;3.30;;
32812;SDS011;19162;48.254;11.454;2023-04-25T16:34:03;3.13;;;2.83;;
32812;SDS011;19162;48.254;11.454;2023-04-25T16:37:03;3.13;;;2.92;;
32812;SDS011;19162;48.254;11.454;2023-04-25T16:40:03;3.63;;;3.40;;
32812;SDS011;19162;48.254;11.454;2023-04-25T16:43:04;2.83;;;2.63;;
32812;SDS011;19162;48.254;11.454;2023-04-25T16:46:04;2.97;;;2.78;;
32812;SDS011;19162;48.254;11.454;2023-04-25T16:49:04;3.33;;;3.03;;
32812;SDS011;19162;48.254;11.454;2023-04-25T16:52:05;3.85;;;3.55;;
32812;SDS011;19162;48.254;11.454;2023-04-25T16:55:05;4.10;;;3.07;;
32812;SDS011;19162;48.254;11.454;2023-04-25T16:58:07;3.35;;;3.03;;
32812;SDS011;19162;48.254;11.454;2023-04-25T17:01:10;2.58;;;2.47;;
32812;SDS011;19162;48.254;11.454;2023-04-25T17:04:10;3.40;;;3.20;;
32812;SDS011;19162;48.254;11.454;2023-04-25T17:07:10;3.40;;;3.20;;
32812;SDS011;19162;48.254;11.454;2023-04-25T17:10:11;3.65;;;3.35;;
32812;SDS011;19162;48.254;11.454;2023-04-25T17:13:11;3.47;;;3.28;;
32812;SDS011;19162;48.254;11.454;2023-04-25T17:16:11;3.83;;;3.53;;
32812;SDS011;19162;48.254;11.454;2023-04-25T17:19:15;3.85;;;3.55;;
32812;SDS011;19162;48.254;11.454;2023-04-25T17:22:15;4.63;;;4.23;;
32812;SDS011;19162;48.254;11.454;2023-04-25T17:25:15;4.80;;;4.37;;
32812;SDS011;19162;48.254;11.454;2023-04-25T17:28:16;3.67;;;3.37;;
32812;SDS011;19162;48.254;11.454;2023-04-25T17:31:16;4.22;;;3.85;;
32812;SDS011;19162;48.254;11.454;2023-04-25T17:34:16;4.60;;;4.20;;
32812;SDS011;19162;48.254;11.454;2023-04-25T17:37:17;5.00;;;4.60;;
32812;SDS011;19162;48.254;11.454;2023-04-25T17:40:18;3.85;;;3.55;;
32812;SDS011;19162;48.254;11.454;2023-04-25T17:43:18;4.18;;;3.78;;
32812;SDS011;19162;48.254;11.454;2023-04-25T17:46:19;7.47;;;4.13;;
32812;SDS011;19162;48.254;11.454;2023-04-25T17:49:20;4.55;;;4.22;;
32812;SDS011;19162;48.254;11.454;2023-04-25T17:52:20;4.43;;;4.10;;
32812;SDS011;19162;48.254;11.454;2023-04-25T17:55:20;4.18;;;3.78;;
32812;SDS011;19162;48.254;11.454;2023-04-25T17:58:21;4.00;;;3.70;;
32812;SDS011;19162;48.254;11.454;2023-04-25T18:01:21;3.92;;;3.67;;
32812;SDS011;19162;48.254;11.454;2023-04-25T18:04:21;4.10;;;3.70;;
32812;SDS011;19162;48.254;11.454;2023-04-25T18:07:21;4.10;;;3.80;;
32812;SDS011;19162;48.254;11.454;2023-04-25T18:10:22;2.83;;;2.63;;
32812;SDS011;19162;48.254;11.454;2023-04-25T18:13:24;3.27;;;3.07;;
32812;SDS011;19162;48.254;11.454;2023-04-25T18:16:24;3.45;;;3.15;;
32812;SDS011;19162;48.254;11.454;2023-04-25T18:19:24;3.50;;;3.20;;
32812;SDS011;19162;48.254;11.454;2023-04-25T18:22:24;5.37;;;4.40;;
32812;SDS011;19162;48.254;11.454;2023-04-25T18:25:25;5.17;;;4.77;;
32812;SDS011;19162;48.254;11.454;2023-04-25T18:28:25;7.80;;;7.20;;
32812;SDS011;19162;48.254;11.454;2023-04-25T18:31:25;4.30;;;3.90;;
32812;SDS011;19162;48.254;11.454;2023-04-25T18:34:25;4.43;;;4.03;;
32812;SDS011;19162;48.254;11.454;2023-04-25T18:37:26;4.63;;;4.30;;
32812;SDS011;19162;48.254;11.454;2023-04-25T18:40:27;4.32;;;3.92;;
32812;SDS011;19162;48.254;11.454;2023-04-25T18:43:27;4.47;;;4.07;;
32812;SDS011;19162;48.254;11.454;2023-04-25T18:46:28;4.07;;;3.77;;
32812;SDS011;19162;48.254;11.454;2023-04-25T18:49:28;3.92;;;3.63;;
32812;SDS011;19162;48.254;11.454;2023-04-25T18:52:28;4.03;;;3.63;;
32812;SDS011;19162;48.254;11.454;2023-04-25T18:55:28;3.73;;;3.53;;
32812;SDS011;19162;48.254;11.454;2023-04-25T18:58:29;3.50;;;3.20;;
32812;SDS011;19162;48.254;11.454;2023-04-25T19:01:29;4.18;;;3.78;;
32812;SDS011;19162;48.254;11.454;2023-04-25T19:04:29;4.67;;;4.23;;
32812;SDS011;19162;48.254;11.454;2023-04-25T19:07:30;6.93;;;6.33;;
32812;SDS011;19162;48.254;11.454;2023-04-25T19:10:31;7.78;;;7.07;;